createdAt,value
2022-10-31T00:01:02.045Z,5.15
2022-10-31T00:03:39.896Z,4.47
2022-10-31T00:06:06.594Z,6.87
2022-10-31T00:08:33.421Z,7.15
2022-10-31T00:11:00.102Z,6.10
2022-10-31T00:13:27.014Z,5.55
2022-10-31T00:15:53.659Z,5.22
2022-10-31T00:18:20.780Z,5.20
2022-10-31T00:20:47.509Z,5.60
2022-10-31T00:23:14.489Z,5.95
2022-10-31T00:25:41.616Z,6.90
2022-10-31T00:28:11.589Z,6.10
2022-10-31T00:30:38.800Z,4.90
2022-10-31T00:33:06.296Z,6.40
2022-10-31T00:35:33.449Z,7.93
2022-10-31T00:38:11.367Z,8.48
2022-10-31T00:40:40.956Z,8.25
2022-10-31T00:43:07.962Z,6.63
2022-10-31T00:45:39.036Z,5.53
2022-10-31T00:48:10.462Z,5.20
2022-10-31T00:50:43.672Z,4.97
2022-10-31T00:53:20.589Z,4.53
2022-10-31T00:55:53.955Z,4.20
2022-10-31T00:58:26.016Z,4.15
2022-10-31T01:00:56.475Z,4.10
2022-10-31T01:03:30.193Z,4.60
2022-10-31T01:06:09.502Z,3.70
2022-10-31T01:08:38.132Z,4.00
2022-10-31T01:11:17.932Z,4.00
2022-10-31T01:13:48.622Z,4.32
2022-10-31T01:16:20.841Z,4.22
2022-10-31T01:19:19.545Z,5.78
2022-10-31T01:22:07.897Z,5.37
2022-10-31T01:27:40.263Z,4.60
2022-10-31T01:30:31.985Z,5.55
2022-10-31T01:33:05.947Z,5.13
2022-10-31T01:35:47.549Z,4.23
2022-10-31T01:38:32.892Z,6.15
2022-10-31T01:41:03.498Z,5.28
2022-10-31T01:43:56.393Z,6.70
2022-10-31T01:46:37.188Z,6.60
2022-10-31T01:49:16.439Z,7.60
2022-10-31T01:52:16.614Z,5.47
2022-10-31T01:55:00.134Z,4.40
2022-10-31T01:57:28.106Z,4.95
2022-10-31T02:00:00.520Z,7.03
2022-10-31T02:02:30.653Z,7.10
2022-10-31T02:04:58.609Z,5.00
2022-10-31T02:07:43.161Z,5.30
2022-10-31T02:10:10.151Z,4.80
2022-10-31T02:12:39.945Z,5.10
2022-10-31T02:15:07.401Z,4.30
2022-10-31T02:17:34.930Z,4.30
2022-10-31T02:20:14.688Z,4.47
2022-10-31T02:22:55.775Z,5.75
2022-10-31T02:25:48.000Z,4.47
2022-10-31T02:28:21.249Z,4.83
2022-10-31T02:31:25.360Z,4.97
2022-10-31T02:34:23.920Z,4.68
2022-10-31T02:37:00.360Z,5.10
2022-10-31T02:39:33.120Z,4.15
2022-10-31T02:42:22.084Z,4.63
2022-10-31T02:45:29.898Z,5.43
2022-10-31T02:48:03.416Z,6.88
2022-10-31T02:50:38.530Z,5.80
2022-10-31T02:53:05.324Z,5.97
2022-10-31T02:55:32.223Z,5.87
2022-10-31T02:58:15.380Z,6.43
2022-10-31T03:01:19.299Z,7.40
2022-10-31T03:03:59.218Z,8.82
2022-10-31T03:06:42.179Z,9.88
2022-10-31T03:09:14.726Z,8.87
2022-10-31T03:12:08.376Z,9.10
2022-10-31T03:14:48.001Z,10.07
2022-10-31T03:17:36.856Z,10.98
2022-10-31T03:20:07.381Z,12.30
2022-10-31T03:22:35.214Z,8.70
2022-10-31T03:25:05.165Z,9.77
2022-10-31T03:27:36.080Z,8.70
2022-10-31T03:30:06.696Z,10.25
2022-10-31T03:32:51.073Z,14.20
2022-10-31T03:35:20.706Z,14.87
2022-10-31T03:37:49.796Z,16.73
2022-10-31T03:40:19.785Z,18.50
2022-10-31T03:43:02.288Z,13.73
2022-10-31T03:45:32.770Z,11.38
2022-10-31T03:48:00.909Z,17.27
2022-10-31T03:50:39.968Z,17.00
2022-10-31T03:53:18.106Z,16.58
2022-10-31T03:55:52.678Z,14.25
2022-10-31T03:58:25.474Z,12.48
2022-10-31T04:00:56.782Z,13.93
2022-10-31T04:03:28.298Z,13.88
2022-10-31T04:06:00.975Z,12.95
2022-10-31T04:08:32.361Z,11.30
2022-10-31T04:11:01.899Z,11.80
2022-10-31T04:13:31.577Z,11.83
2022-10-31T04:16:03.559Z,10.40
2022-10-31T04:18:30.802Z,11.02
2022-10-31T04:21:03.515Z,8.50
2022-10-31T04:23:32.387Z,9.70
2022-10-31T04:26:00.732Z,9.53
2022-10-31T04:28:28.093Z,9.45
2022-10-31T04:30:55.328Z,8.80
2022-10-31T04:33:23.216Z,8.95
2022-10-31T04:35:51.065Z,10.63
2022-10-31T04:38:19.231Z,11.57
2022-10-31T04:40:46.734Z,12.95
2022-10-31T04:43:32.387Z,12.63
2022-10-31T04:46:00.922Z,11.05
2022-10-31T04:48:28.766Z,12.82
2022-10-31T04:51:03.491Z,15.20
2022-10-31T04:53:30.562Z,13.48
2022-10-31T04:56:35.016Z,12.25
2022-10-31T04:59:19.863Z,11.35
2022-10-31T05:01:51.464Z,13.18
2022-10-31T05:04:26.318Z,13.17
2022-10-31T05:06:57.491Z,14.48
2022-10-31T05:09:27.772Z,12.45
2022-10-31T05:11:56.481Z,12.38
2022-10-31T05:14:46.154Z,9.90
2022-10-31T05:17:46.549Z,9.80
2022-10-31T05:20:54.522Z,12.95
2022-10-31T05:23:45.806Z,13.82
2022-10-31T05:26:22.347Z,12.10
2022-10-31T05:28:53.748Z,13.10
2022-10-31T05:31:25.587Z,11.03
2022-10-31T05:33:57.063Z,10.80
2022-10-31T05:36:45.678Z,10.15
2022-10-31T05:39:21.602Z,9.48
2022-10-31T05:41:57.212Z,11.90
2022-10-31T05:44:28.228Z,10.40
2022-10-31T05:47:09.265Z,9.55
2022-10-31T05:49:54.640Z,9.82
2022-10-31T05:52:40.049Z,10.57
2022-10-31T05:55:30.204Z,9.75
2022-10-31T05:58:08.082Z,10.27
2022-10-31T06:00:36.848Z,12.13
2022-10-31T06:05:55.376Z,11.20
2022-10-31T06:08:25.529Z,12.77
2022-10-31T06:10:54.751Z,14.77
2022-10-31T06:13:33.947Z,14.52
2022-10-31T06:16:10.095Z,12.32
2022-10-31T06:18:39.402Z,11.10
2022-10-31T06:21:06.024Z,8.82
2022-10-31T06:23:32.802Z,7.40
2022-10-31T06:26:19.459Z,7.22
2022-10-31T06:28:46.236Z,5.60
2022-10-31T06:31:25.234Z,8.15
2022-10-31T06:33:52.208Z,7.93
2022-10-31T06:36:18.883Z,7.47
2022-10-31T06:38:45.700Z,6.93
2022-10-31T06:41:13.222Z,8.32
2022-10-31T06:43:48.206Z,8.05
2022-10-31T06:46:33.586Z,9.55
2022-10-31T06:49:20.725Z,9.63
2022-10-31T06:51:53.933Z,9.87
2022-10-31T06:54:22.397Z,8.40
2022-10-31T06:56:49.511Z,7.95
2022-10-31T06:59:16.844Z,7.55
2022-10-31T07:02:03.663Z,7.07
2022-10-31T07:04:30.637Z,9.80
2022-10-31T07:06:57.335Z,10.57
2022-10-31T07:09:24.579Z,9.48
2022-10-31T07:11:53.384Z,10.85
2022-10-31T07:14:20.305Z,11.00
2022-10-31T07:16:51.747Z,11.20
2022-10-31T07:19:23.880Z,10.23
2022-10-31T07:21:50.483Z,7.95
2022-10-31T07:24:17.324Z,7.00
2022-10-31T07:26:44.560Z,6.55
2022-10-31T07:29:11.388Z,5.77
2022-10-31T07:31:38.527Z,5.90
2022-10-31T07:34:12.265Z,6.20
2022-10-31T07:36:57.343Z,5.95
2022-10-31T07:39:24.703Z,6.00
2022-10-31T07:41:51.548Z,5.70
2022-10-31T07:44:19.886Z,5.10
2022-10-31T07:46:46.474Z,5.00
2022-10-31T07:49:31.968Z,5.50
2022-10-31T07:52:17.518Z,5.95
2022-10-31T07:55:10.578Z,4.80
2022-10-31T07:57:40.364Z,5.22
2022-10-31T08:00:09.179Z,7.88
2022-10-31T08:02:41.603Z,7.00
2022-10-31T08:05:32.253Z,6.85
2022-10-31T08:08:31.251Z,7.00
2022-10-31T08:11:00.329Z,6.88
2022-10-31T08:13:27.046Z,6.53
2022-10-31T08:15:55.205Z,5.68
2022-10-31T08:18:25.323Z,7.53
2022-10-31T08:20:54.477Z,6.63
2022-10-31T08:23:21.261Z,7.22
2022-10-31T08:25:48.921Z,7.80
2022-10-31T08:28:16.162Z,7.80
2022-10-31T08:30:44.658Z,8.15
2022-10-31T08:33:30.133Z,9.13
2022-10-31T08:36:15.265Z,8.18
2022-10-31T08:39:07.979Z,8.00
2022-10-31T08:41:36.449Z,12.20
2022-10-31T08:44:03.554Z,18.80
2022-10-31T08:46:30.338Z,26.40
2022-10-31T08:48:57.035Z,25.42
2022-10-31T08:51:24.241Z,27.83
2022-10-31T08:53:54.184Z,29.98
2022-10-31T08:56:36.264Z,31.13
2022-10-31T08:59:08.997Z,30.93
2022-10-31T09:02:01.895Z,29.80
2022-10-31T09:04:29.670Z,27.38
2022-10-31T09:09:43.317Z,21.00
2022-10-31T09:12:10.578Z,25.20
2022-10-31T09:14:55.270Z,36.55
2022-10-31T09:17:33.384Z,48.63
2022-10-31T09:20:19.544Z,39.80
2022-10-31T09:22:46.974Z,35.38
2022-10-31T09:25:14.821Z,34.57
2022-10-31T09:27:45.404Z,31.15
2022-10-31T09:30:12.506Z,29.83
2022-10-31T09:32:40.064Z,29.50
2022-10-31T09:35:07.301Z,28.85
2022-10-31T09:37:34.612Z,24.80
2022-10-31T09:40:01.348Z,22.30
2022-10-31T09:42:46.119Z,27.13
2022-10-31T09:45:48.566Z,30.17
2022-10-31T09:48:45.604Z,25.83
2022-10-31T09:51:36.058Z,40.33
2022-10-31T09:54:19.565Z,74.55
2022-10-31T09:56:46.608Z,64.38
2022-10-31T09:59:25.249Z,76.55
2022-10-31T10:02:01.244Z,89.53
2022-10-31T10:04:54.639Z,71.40
2022-10-31T10:07:47.394Z,56.20
2022-10-31T10:10:48.853Z,45.28
2022-10-31T10:13:38.233Z,40.20
2022-10-31T10:16:27.473Z,41.00
2022-10-31T10:19:06.218Z,43.77
2022-10-31T10:21:57.986Z,51.65
2022-10-31T10:24:53.913Z,32.08
2022-10-31T10:27:47.719Z,28.58
2022-10-31T10:30:19.096Z,29.15
2022-10-31T10:32:51.049Z,27.77
2022-10-31T10:35:34.588Z,28.80
2022-10-31T10:38:10.779Z,33.05
2022-10-31T10:40:38.155Z,36.90
2022-10-31T10:43:20.126Z,49.33
2022-10-31T10:46:11.864Z,42.53
2022-10-31T10:48:57.254Z,44.92
2022-10-31T10:51:46.329Z,40.17
2022-10-31T10:54:57.706Z,42.58
2022-10-31T10:57:47.928Z,40.78
2022-10-31T11:00:22.317Z,36.50
2022-10-31T11:02:49.747Z,33.38
2022-10-31T11:05:55.077Z,29.00
2022-10-31T11:08:50.882Z,16.45
2022-10-31T11:11:17.896Z,16.42
2022-10-31T11:13:49.929Z,15.47
2022-10-31T11:16:31.026Z,17.27
2022-10-31T11:19:09.920Z,20.63
2022-10-31T11:21:36.780Z,28.88
2022-10-31T11:24:04.310Z,31.02
2022-10-31T11:26:31.275Z,30.87
2022-10-31T11:29:00.802Z,34.40
2022-10-31T11:31:28.519Z,29.88
2022-10-31T11:34:01.578Z,32.05
2022-10-31T11:36:32.545Z,38.90
2022-10-31T11:39:02.057Z,22.20
2022-10-31T11:41:33.881Z,41.60
2022-10-31T11:44:15.962Z,20.30
2022-10-31T11:46:46.604Z,16.25
2022-10-31T11:49:28.513Z,19.83
2022-10-31T11:51:58.952Z,23.43
2022-10-31T11:54:33.387Z,18.63
2022-10-31T11:57:00.888Z,18.77
2022-10-31T11:59:29.576Z,16.42
2022-10-31T12:01:59.039Z,20.58
2022-10-31T12:04:49.226Z,18.00
2022-10-31T12:07:16.216Z,18.42
2022-10-31T12:09:43.013Z,17.25
2022-10-31T12:12:12.844Z,16.30
2022-10-31T12:14:54.634Z,18.15
2022-10-31T12:17:46.646Z,14.93
2022-10-31T12:20:13.379Z,17.10
2022-10-31T12:22:51.083Z,15.90
2022-10-31T12:25:30.229Z,16.40
2022-10-31T12:28:05.093Z,18.05
2022-10-31T12:31:00.172Z,15.83
2022-10-31T12:33:42.316Z,14.52
2022-10-31T12:36:19.892Z,13.50
2022-10-31T12:39:14.861Z,16.92
2022-10-31T12:41:48.769Z,15.32
2022-10-31T12:44:37.400Z,18.63
2022-10-31T12:47:04.233Z,17.17
2022-10-31T12:49:50.699Z,18.70
2022-10-31T12:52:26.619Z,15.30
2022-10-31T12:55:20.525Z,14.50
2022-10-31T12:57:52.086Z,15.87
2022-10-31T13:00:20.572Z,15.35
2022-10-31T13:03:19.949Z,15.13
2022-10-31T13:05:55.627Z,17.50
2022-10-31T13:08:34.317Z,18.75
2022-10-31T13:11:27.045Z,25.27
2022-10-31T13:14:02.651Z,27.05
2022-10-31T13:16:35.532Z,33.15
2022-10-31T13:19:19.601Z,43.17
2022-10-31T13:22:11.413Z,36.63
2022-10-31T13:25:10.578Z,42.67
2022-10-31T13:27:52.073Z,30.65
2022-10-31T13:30:20.461Z,41.50
2022-10-31T13:33:04.325Z,33.92
2022-10-31T13:35:47.338Z,31.30
2022-10-31T13:38:35.898Z,31.77
2022-10-31T13:41:13.803Z,31.83
2022-10-31T13:43:50.079Z,25.75
2022-10-31T13:46:36.479Z,34.88
2022-10-31T13:49:04.900Z,28.50
2022-10-31T13:51:35.068Z,30.47
2022-10-31T13:54:08.449Z,28.15
2022-10-31T13:56:36.518Z,27.00
2022-10-31T13:59:09.710Z,21.58
2022-10-31T14:01:37.541Z,19.70
2022-10-31T14:04:25.257Z,17.93
2022-10-31T14:06:58.264Z,23.92
2022-10-31T14:09:29.403Z,20.67
2022-10-31T14:11:58.178Z,23.75
2022-10-31T14:14:33.043Z,25.42
2022-10-31T14:17:00.386Z,25.47
2022-10-31T14:19:28.203Z,17.88
2022-10-31T14:21:54.981Z,19.40
2022-10-31T14:24:24.517Z,16.05
2022-10-31T14:27:01.299Z,20.10
2022-10-31T14:29:30.895Z,19.73
2022-10-31T14:32:13.725Z,19.13
2022-10-31T14:34:59.614Z,15.90
2022-10-31T14:37:32.316Z,15.77
2022-10-31T14:40:16.340Z,15.52
2022-10-31T14:43:20.677Z,16.67
2022-10-31T14:46:01.690Z,16.70
2022-10-31T14:49:02.202Z,18.73
2022-10-31T14:51:37.771Z,17.15
2022-10-31T14:54:06.683Z,15.05
2022-10-31T14:56:36.705Z,17.10
2022-10-31T14:59:13.040Z,14.38
2022-10-31T15:01:40.929Z,16.02
2022-10-31T15:04:24.965Z,14.38
2022-10-31T15:06:59.556Z,15.60
2022-10-31T15:09:30.933Z,15.77
2022-10-31T15:12:22.220Z,15.32
2022-10-31T15:14:48.853Z,15.13
2022-10-31T15:17:16.622Z,15.88
2022-10-31T15:19:43.789Z,23.00
2022-10-31T15:22:16.300Z,23.50
2022-10-31T15:24:44.009Z,27.10
2022-10-31T15:27:17.087Z,24.60
2022-10-31T15:29:51.395Z,20.35
2022-10-31T15:32:28.899Z,18.17
2022-10-31T15:34:57.498Z,14.13
2022-10-31T15:37:26.882Z,15.18
2022-10-31T15:39:53.798Z,12.50
2022-10-31T15:42:26.508Z,11.82
2022-10-31T15:45:00.979Z,12.30
2022-10-31T15:47:30.778Z,12.00
2022-10-31T15:50:02.190Z,11.63
2022-10-31T15:52:39.989Z,12.45
2022-10-31T15:55:16.795Z,15.63
2022-10-31T15:57:46.352Z,19.85
2022-10-31T16:00:34.299Z,27.87
2022-10-31T16:03:13.142Z,22.48
2022-10-31T16:05:52.065Z,25.13
2022-10-31T16:08:35.319Z,17.27
2022-10-31T16:11:28.656Z,15.05
2022-10-31T16:14:06.948Z,13.83
2022-10-31T16:16:36.432Z,12.70
2022-10-31T16:19:06.216Z,14.30
2022-10-31T16:21:36.006Z,15.40
2022-10-31T16:24:20.421Z,17.00
2022-10-31T16:26:52.052Z,13.97
2022-10-31T16:29:43.977Z,14.35
2022-10-31T16:32:30.939Z,15.57
2022-10-31T16:35:10.247Z,13.73
2022-10-31T16:37:43.744Z,12.85
2022-10-31T16:40:25.422Z,10.93
2022-10-31T16:42:52.989Z,12.38
2022-10-31T16:45:24.631Z,11.10
2022-10-31T16:48:22.362Z,10.27
2022-10-31T16:50:50.721Z,10.82
2022-10-31T16:53:20.129Z,11.13
2022-10-31T16:55:59.005Z,10.65
2022-10-31T16:58:30.672Z,11.18
2022-10-31T17:00:58.653Z,11.05
2022-10-31T17:06:16.195Z,10.33
2022-10-31T17:08:43.046Z,11.70
2022-10-31T17:11:30.213Z,12.75
2022-10-31T17:13:57.588Z,12.52
2022-10-31T17:16:27.766Z,12.18
2022-10-31T17:18:54.653Z,14.27
2022-10-31T17:21:23.838Z,12.75
2022-10-31T17:23:51.364Z,12.23
2022-10-31T17:26:18.473Z,11.85
2022-10-31T17:28:45.337Z,10.48
2022-10-31T17:31:22.165Z,9.30
2022-10-31T17:33:49.297Z,8.82
2022-10-31T17:36:16.693Z,9.70
2022-10-31T17:38:43.374Z,9.50
2022-10-31T17:41:11.438Z,10.20
2022-10-31T17:43:38.677Z,15.13
2022-10-31T17:46:06.193Z,14.23
2022-10-31T17:48:37.136Z,17.63
2022-10-31T17:51:05.928Z,13.27
2022-10-31T17:53:34.483Z,18.75
2022-10-31T17:56:06.490Z,16.33
2022-10-31T17:58:43.319Z,12.52
2022-10-31T18:01:15.527Z,11.10
2022-10-31T18:03:42.767Z,14.18
2022-10-31T18:06:11.563Z,12.68
2022-10-31T18:08:40.456Z,12.93
2022-10-31T18:11:10.897Z,12.80
2022-10-31T18:13:38.430Z,11.07
2022-10-31T18:16:15.007Z,11.45
2022-10-31T18:18:42.312Z,12.05
2022-10-31T18:21:09.163Z,21.13
2022-10-31T18:23:35.934Z,15.10
2022-10-31T18:26:02.795Z,13.05
2022-10-31T18:28:29.479Z,12.20
2022-10-31T18:30:59.390Z,26.75
2022-10-31T18:33:26.164Z,18.83
2022-10-31T18:35:53.237Z,17.03
2022-10-31T18:38:20.002Z,16.95
2022-10-31T18:40:46.950Z,12.07
2022-10-31T18:43:13.778Z,13.10
2022-10-31T18:45:47.145Z,12.90
2022-10-31T18:48:17.284Z,14.13
2022-10-31T18:50:44.637Z,13.95
2022-10-31T18:53:11.664Z,16.92
2022-10-31T18:55:45.403Z,22.40
2022-10-31T18:58:16.292Z,24.23
2022-10-31T19:00:43.226Z,15.43
2022-10-31T19:03:10.129Z,14.73
2022-10-31T19:05:41.425Z,19.02
2022-10-31T19:08:08.102Z,16.60
2022-10-31T19:10:36.437Z,15.48
2022-10-31T19:13:03.605Z,16.43
2022-10-31T19:15:34.237Z,18.65
2022-10-31T19:18:04.511Z,24.20
2022-10-31T19:20:33.653Z,25.67
2022-10-31T19:23:00.762Z,29.42
2022-10-31T19:25:27.858Z,36.93
2022-10-31T19:27:59.030Z,26.13
2022-10-31T19:30:29.241Z,19.42
2022-10-31T19:32:56.042Z,21.80
2022-10-31T19:35:25.868Z,19.67
2022-10-31T19:37:52.622Z,26.70
2022-10-31T19:40:39.912Z,21.52
2022-10-31T19:43:09.723Z,24.05
2022-10-31T19:45:36.701Z,24.48
2022-10-31T19:48:06.001Z,29.50
2022-10-31T19:50:32.851Z,25.97
2022-10-31T19:53:02.613Z,31.90
2022-10-31T19:55:29.518Z,29.85
2022-10-31T19:58:02.166Z,28.60
2022-10-31T20:00:32.007Z,25.90
2022-10-31T20:02:59.993Z,19.13
2022-10-31T20:05:26.983Z,16.10
2022-10-31T20:07:53.637Z,22.63
2022-10-31T20:10:20.775Z,21.85
2022-10-31T20:12:47.433Z,22.17
2022-10-31T20:15:14.621Z,21.10
2022-10-31T20:17:41.282Z,19.45
2022-10-31T20:20:09.034Z,20.58
2022-10-31T20:22:36.560Z,21.02
2022-10-31T20:25:04.776Z,20.17
2022-10-31T20:27:31.959Z,18.47
2022-10-31T20:29:58.842Z,15.75
2022-10-31T20:32:25.598Z,18.92
2022-10-31T20:34:52.483Z,18.15
2022-10-31T20:37:24.486Z,19.83
2022-10-31T20:40:05.462Z,22.80
2022-10-31T20:42:37.453Z,24.95
2022-10-31T20:45:25.097Z,23.77
2022-10-31T20:47:53.621Z,26.90
2022-10-31T20:50:20.840Z,25.73
2022-10-31T20:52:50.157Z,31.10
2022-10-31T20:55:17.645Z,21.40
2022-10-31T20:57:57.962Z,27.23
2022-10-31T21:00:38.810Z,24.02
2022-10-31T21:03:07.962Z,25.23
2022-10-31T21:05:59.247Z,34.53
2022-10-31T21:08:35.136Z,31.83
2022-10-31T21:11:18.497Z,24.45
2022-10-31T21:13:49.548Z,16.77
2022-10-31T21:16:21.357Z,22.27
2022-10-31T21:18:49.505Z,17.83
2022-10-31T21:21:16.332Z,18.55
2022-10-31T21:23:43.221Z,18.05
2022-10-31T21:26:24.631Z,28.88
2022-10-31T21:29:01.778Z,30.30
2022-10-31T21:31:28.876Z,33.43
2022-10-31T21:34:05.612Z,25.95
2022-10-31T21:36:39.723Z,30.95
2022-10-31T21:39:10.034Z,26.08
2022-10-31T21:41:37.414Z,28.55
2022-10-31T21:44:04.486Z,23.90
2022-10-31T21:46:34.865Z,21.08
2022-10-31T21:49:07.813Z,20.38
2022-10-31T21:51:36.914Z,14.50
2022-10-31T21:54:23.460Z,21.83
2022-10-31T21:56:51.619Z,21.23
2022-10-31T21:59:18.605Z,17.48
2022-10-31T22:01:45.544Z,14.80
2022-10-31T22:04:12.287Z,17.33
2022-10-31T22:06:39.305Z,21.05
2022-10-31T22:09:07.823Z,19.57
2022-10-31T22:11:34.832Z,19.92
2022-10-31T22:14:02.754Z,20.13
2022-10-31T22:16:30.824Z,35.22
2022-10-31T22:19:06.806Z,23.42
2022-10-31T22:21:44.903Z,31.43
2022-10-31T22:24:12.438Z,29.55
2022-10-31T22:26:39.934Z,24.27
2022-10-31T22:29:13.802Z,29.70
2022-10-31T22:31:51.880Z,24.50
2022-10-31T22:34:21.982Z,27.57
2022-10-31T22:36:48.883Z,22.60
2022-10-31T22:39:15.663Z,18.67
2022-10-31T22:41:42.596Z,15.43
2022-10-31T22:44:09.522Z,22.60
2022-10-31T22:46:39.000Z,13.37
2022-10-31T22:49:09.045Z,18.52
2022-10-31T22:51:38.472Z,19.48
2022-10-31T22:54:07.583Z,20.23
2022-10-31T22:56:35.231Z,27.80
2022-10-31T22:59:02.496Z,25.30
2022-10-31T23:01:32.347Z,26.48
2022-10-31T23:03:59.726Z,20.58
2022-10-31T23:06:30.144Z,18.30
2022-10-31T23:08:57.243Z,15.70
2022-10-31T23:11:33.320Z,17.43
2022-10-31T23:14:14.530Z,16.55
2022-10-31T23:16:50.064Z,17.45
2022-10-31T23:19:22.621Z,16.77
2022-10-31T23:21:55.265Z,14.98
2022-10-31T23:24:23.402Z,16.03
2022-10-31T23:27:07.016Z,17.02
2022-10-31T23:29:38.286Z,16.85
2022-10-31T23:32:07.940Z,16.02
2022-10-31T23:34:34.567Z,15.40
2022-10-31T23:37:01.498Z,13.07
2022-10-31T23:39:28.457Z,15.07
2022-10-31T23:41:55.383Z,16.35
2022-10-31T23:44:22.038Z,16.67
2022-10-31T23:46:48.848Z,13.25
2022-10-31T23:49:15.560Z,13.80
2022-10-31T23:51:42.360Z,14.32
2022-10-31T23:54:08.995Z,16.08
2022-10-31T23:56:36.220Z,17.23
2022-10-31T23:59:03.608Z,15.15
